sensor_id;sensor_type;location;lat;lon;timestamp;temperature;humidity
75824;DHT22;64457;51.976;9.834;2023-12-22T00:00:55;8.10;98.20
75824;DHT22;64457;51.976;9.834;2023-12-22T00:03:23;8.30;98.20
75824;DHT22;64457;51.976;9.834;2023-12-22T00:05:51;8.40;97.90
75824;DHT22;64457;51.976;9.834;2023-12-22T00:08:18;8.60;98.00
75824;DHT22;64457;51.976;9.834;2023-12-22T00:10:46;8.70;97.70
75824;DHT22;64457;51.976;9.834;2023-12-22T00:13:14;8.70;98.00
75824;DHT22;64457;51.976;9.834;2023-12-22T00:15:41;8.80;98.00
75824;DHT22;64457;51.976;9.834;2023-12-22T00:18:09;8.60;98.20
75824;DHT22;64457;51.976;9.834;2023-12-22T00:20:36;8.50;98.40
75824;DHT22;64457;51.976;9.834;2023-12-22T00:23:03;8.40;98.50
75824;DHT22;64457;51.976;9.834;2023-12-22T00:25:31;8.30;98.70
75824;DHT22;64457;51.976;9.834;2023-12-22T00:27:59;8.10;99.20
75824;DHT22;64457;51.976;9.834;2023-12-22T00:30:27;7.80;99.50
75824;DHT22;64457;51.976;9.834;2023-12-22T00:32:54;7.60;99.90
75824;DHT22;64457;51.976;9.834;2023-12-22T00:35:21;7.50;99.90
75824;DHT22;64457;51.976;9.834;2023-12-22T00:37:49;7.50;99.50
75824;DHT22;64457;51.976;9.834;2023-12-22T00:40:16;7.50;99.20
75824;DHT22;64457;51.976;9.834;2023-12-22T00:42:43;7.70;99.30
75824;DHT22;64457;51.976;9.834;2023-12-22T00:45:12;7.80;98.50
75824;DHT22;64457;51.976;9.834;2023-12-22T00:47:39;7.40;99.00
75824;DHT22;64457;51.976;9.834;2023-12-22T00:50:07;7.40;99.40
75824;DHT22;64457;51.976;9.834;2023-12-22T00:52:37;7.40;99.30
75824;DHT22;64457;51.976;9.834;2023-12-22T00:55:04;7.20;99.50
75824;DHT22;64457;51.976;9.834;2023-12-22T00:57:32;7.30;99.50
75824;DHT22;64457;51.976;9.834;2023-12-22T00:59:59;7.50;99.50
75824;DHT22;64457;51.976;9.834;2023-12-22T01:02:28;7.60;99.20
75824;DHT22;64457;51.976;9.834;2023-12-22T01:04:55;7.60;99.20
75824;DHT22;64457;51.976;9.834;2023-12-22T01:07:23;7.60;99.50
75824;DHT22;64457;51.976;9.834;2023-12-22T01:09:51;7.60;99.90
75824;DHT22;64457;51.976;9.834;2023-12-22T01:12:19;7.50;99.90
75824;DHT22;64457;51.976;9.834;2023-12-22T01:14:47;7.30;99.90
75824;DHT22;64457;51.976;9.834;2023-12-22T01:17:17;7.50;99.90
75824;DHT22;64457;51.976;9.834;2023-12-22T01:19:46;7.50;99.90
75824;DHT22;64457;51.976;9.834;2023-12-22T01:22:13;7.50;99.90
75824;DHT22;64457;51.976;9.834;2023-12-22T01:24:41;7.50;99.90
75824;DHT22;64457;51.976;9.834;2023-12-22T01:27:10;7.60;99.90
75824;DHT22;64457;51.976;9.834;2023-12-22T01:29:37;7.70;99.90
75824;DHT22;64457;51.976;9.834;2023-12-22T01:32:05;7.30;99.90
75824;DHT22;64457;51.976;9.834;2023-12-22T01:34:33;7.00;99.90
75824;DHT22;64457;51.976;9.834;2023-12-22T01:37:02;6.70;99.90
75824;DHT22;64457;51.976;9.834;2023-12-22T01:39:29;6.70;99.90
75824;DHT22;64457;51.976;9.834;2023-12-22T01:41:56;6.70;99.90
75824;DHT22;64457;51.976;9.834;2023-12-22T01:44:24;6.70;99.90
75824;DHT22;64457;51.976;9.834;2023-12-22T01:46:51;6.70;99.90
75824;DHT22;64457;51.976;9.834;2023-12-22T01:49:20;6.70;99.90
75824;DHT22;64457;51.976;9.834;2023-12-22T01:51:49;6.60;99.90
75824;DHT22;64457;51.976;9.834;2023-12-22T01:54:18;6.80;99.90
75824;DHT22;64457;51.976;9.834;2023-12-22T01:56:45;7.10;99.90
75824;DHT22;64457;51.976;9.834;2023-12-22T01:59:13;7.30;99.90
75824;DHT22;64457;51.976;9.834;2023-12-22T02:01:41;7.30;99.90
75824;DHT22;64457;51.976;9.834;2023-12-22T02:04:12;7.50;99.90
75824;DHT22;64457;51.976;9.834;2023-12-22T02:06:42;7.30;99.90
75824;DHT22;64457;51.976;9.834;2023-12-22T02:09:09;7.10;99.90
75824;DHT22;64457;51.976;9.834;2023-12-22T02:11:39;7.10;99.90
75824;DHT22;64457;51.976;9.834;2023-12-22T02:14:07;6.90;99.90
75824;DHT22;64457;51.976;9.834;2023-12-22T02:16:39;7.10;99.90
75824;DHT22;64457;51.976;9.834;2023-12-22T02:19:15;7.20;99.90
75824;DHT22;64457;51.976;9.834;2023-12-22T02:22:03;7.30;99.90
75824;DHT22;64457;51.976;9.834;2023-12-22T02:24:32;7.00;99.90
75824;DHT22;64457;51.976;9.834;2023-12-22T02:27:03;6.90;99.90
75824;DHT22;64457;51.976;9.834;2023-12-22T02:29:36;7.10;99.90
75824;DHT22;64457;51.976;9.834;2023-12-22T02:32:14;7.10;99.90
75824;DHT22;64457;51.976;9.834;2023-12-22T02:34:49;7.10;99.90
75824;DHT22;64457;51.976;9.834;2023-12-22T02:37:18;7.20;99.80
75824;DHT22;64457;51.976;9.834;2023-12-22T02:39:49;7.30;99.50
75824;DHT22;64457;51.976;9.834;2023-12-22T02:42:18;7.30;99.80
75824;DHT22;64457;51.976;9.834;2023-12-22T02:44:49;7.50;99.50
75824;DHT22;64457;51.976;9.834;2023-12-22T02:47:17;7.50;99.50
75824;DHT22;64457;51.976;9.834;2023-12-22T02:49:44;7.50;99.30
75824;DHT22;64457;51.976;9.834;2023-12-22T02:52:11;7.60;99.40
75824;DHT22;64457;51.976;9.834;2023-12-22T02:54:39;7.70;98.90
75824;DHT22;64457;51.976;9.834;2023-12-22T02:57:08;7.50;98.80
75824;DHT22;64457;51.976;9.834;2023-12-22T02:59:37;7.50;98.90
75824;DHT22;64457;51.976;9.834;2023-12-22T03:02:04;7.10;99.40
75824;DHT22;64457;51.976;9.834;2023-12-22T03:04:32;7.30;99.40
75824;DHT22;64457;51.976;9.834;2023-12-22T03:06:59;7.40;98.70
75824;DHT22;64457;51.976;9.834;2023-12-22T03:09:27;7.40;98.70
75824;DHT22;64457;51.976;9.834;2023-12-22T03:11:54;7.30;98.80
75824;DHT22;64457;51.976;9.834;2023-12-22T03:14:29;7.30;98.50
75824;DHT22;64457;51.976;9.834;2023-12-22T03:16:57;7.20;98.50
75824;DHT22;64457;51.976;9.834;2023-12-22T03:19:24;7.00;98.50
75824;DHT22;64457;51.976;9.834;2023-12-22T03:21:52;7.10;98.70
75824;DHT22;64457;51.976;9.834;2023-12-22T03:24:19;7.30;98.30
75824;DHT22;64457;51.976;9.834;2023-12-22T03:26:48;7.20;98.30
75824;DHT22;64457;51.976;9.834;2023-12-22T03:29:15;7.30;98.70
75824;DHT22;64457;51.976;9.834;2023-12-22T03:31:44;7.50;98.00
75824;DHT22;64457;51.976;9.834;2023-12-22T03:34:12;7.40;97.80
75824;DHT22;64457;51.976;9.834;2023-12-22T03:36:40;7.20;97.90
75824;DHT22;64457;51.976;9.834;2023-12-22T03:39:07;7.10;97.80
75824;DHT22;64457;51.976;9.834;2023-12-22T03:41:35;7.10;98.10
75824;DHT22;64457;51.976;9.834;2023-12-22T03:44:02;6.70;98.30
75824;DHT22;64457;51.976;9.834;2023-12-22T03:46:29;7.00;98.40
75824;DHT22;64457;51.976;9.834;2023-12-22T03:48:58;7.10;98.30
75824;DHT22;64457;51.976;9.834;2023-12-22T03:51:26;7.30;98.10
75824;DHT22;64457;51.976;9.834;2023-12-22T03:53:54;7.20;97.50
75824;DHT22;64457;51.976;9.834;2023-12-22T03:56:21;7.20;98.00
75824;DHT22;64457;51.976;9.834;2023-12-22T03:58:48;7.30;98.20
75824;DHT22;64457;51.976;9.834;2023-12-22T04:01:15;7.40;97.70
75824;DHT22;64457;51.976;9.834;2023-12-22T04:03:43;6.90;98.10
75824;DHT22;64457;51.976;9.834;2023-12-22T04:06:12;7.00;98.50
75824;DHT22;64457;51.976;9.834;2023-12-22T04:08:39;7.00;98.10
75824;DHT22;64457;51.976;9.834;2023-12-22T04:11:07;7.10;97.90
75824;DHT22;64457;51.976;9.834;2023-12-22T04:13:34;7.20;97.90
75824;DHT22;64457;51.976;9.834;2023-12-22T04:16:01;7.10;97.80
75824;DHT22;64457;51.976;9.834;2023-12-22T04:18:30;7.00;97.70
75824;DHT22;64457;51.976;9.834;2023-12-22T04:20:58;7.00;98.10
75824;DHT22;64457;51.976;9.834;2023-12-22T04:23:26;6.90;98.00
75824;DHT22;64457;51.976;9.834;2023-12-22T04:25:54;6.70;98.10
75824;DHT22;64457;51.976;9.834;2023-12-22T04:28:22;6.80;98.30
75824;DHT22;64457;51.976;9.834;2023-12-22T04:30:49;6.90;98.40
75824;DHT22;64457;51.976;9.834;2023-12-22T04:33:17;6.90;97.90
75824;DHT22;64457;51.976;9.834;2023-12-22T04:35:44;7.20;98.00
75824;DHT22;64457;51.976;9.834;2023-12-22T04:38:12;7.30;97.80
75824;DHT22;64457;51.976;9.834;2023-12-22T04:40:40;7.40;97.50
75824;DHT22;64457;51.976;9.834;2023-12-22T04:43:08;7.60;97.30
75824;DHT22;64457;51.976;9.834;2023-12-22T04:45:36;7.70;97.10
75824;DHT22;64457;51.976;9.834;2023-12-22T04:48:04;7.50;97.00
75824;DHT22;64457;51.976;9.834;2023-12-22T04:50:32;7.70;97.30
75824;DHT22;64457;51.976;9.834;2023-12-22T04:53:00;7.60;96.90
75824;DHT22;64457;51.976;9.834;2023-12-22T04:55:27;7.50;97.50
75824;DHT22;64457;51.976;9.834;2023-12-22T04:57:56;7.40;97.80
75824;DHT22;64457;51.976;9.834;2023-12-22T05:00:25;7.20;97.30
75824;DHT22;64457;51.976;9.834;2023-12-22T05:02:52;7.20;97.30
75824;DHT22;64457;51.976;9.834;2023-12-22T05:05:19;7.20;97.30
75824;DHT22;64457;51.976;9.834;2023-12-22T05:07:47;7.20;97.50
75824;DHT22;64457;51.976;9.834;2023-12-22T05:10:14;7.30;97.20
75824;DHT22;64457;51.976;9.834;2023-12-22T05:12:43;7.30;96.90
75824;DHT22;64457;51.976;9.834;2023-12-22T05:15:12;7.30;96.90
75824;DHT22;64457;51.976;9.834;2023-12-22T05:17:39;7.30;97.20
75824;DHT22;64457;51.976;9.834;2023-12-22T05:20:10;7.40;97.10
75824;DHT22;64457;51.976;9.834;2023-12-22T05:22:38;7.30;97.50
75824;DHT22;64457;51.976;9.834;2023-12-22T05:25:06;7.40;97.70
75824;DHT22;64457;51.976;9.834;2023-12-22T05:27:35;7.40;98.30
75824;DHT22;64457;51.976;9.834;2023-12-22T05:30:04;7.40;98.90
75824;DHT22;64457;51.976;9.834;2023-12-22T05:32:33;7.30;99.30
75824;DHT22;64457;51.976;9.834;2023-12-22T05:35:01;7.20;99.60
75824;DHT22;64457;51.976;9.834;2023-12-22T05:37:28;7.30;99.70
75824;DHT22;64457;51.976;9.834;2023-12-22T05:39:55;7.50;99.20
75824;DHT22;64457;51.976;9.834;2023-12-22T05:42:23;7.50;98.80
75824;DHT22;64457;51.976;9.834;2023-12-22T05:44:51;7.50;98.70
75824;DHT22;64457;51.976;9.834;2023-12-22T05:47:18;7.40;98.80
75824;DHT22;64457;51.976;9.834;2023-12-22T05:49:47;7.40;98.70
75824;DHT22;64457;51.976;9.834;2023-12-22T05:52:14;7.50;98.50
75824;DHT22;64457;51.976;9.834;2023-12-22T05:54:42;7.60;98.30
75824;DHT22;64457;51.976;9.834;2023-12-22T05:57:10;7.60;98.20
75824;DHT22;64457;51.976;9.834;2023-12-22T05:59:39;7.50;98.10
75824;DHT22;64457;51.976;9.834;2023-12-22T06:02:09;7.50;98.10
75824;DHT22;64457;51.976;9.834;2023-12-22T06:04:38;7.10;97.20
75824;DHT22;64457;51.976;9.834;2023-12-22T06:07:12;7.10;97.90
75824;DHT22;64457;51.976;9.834;2023-12-22T06:09:40;7.10;98.10
75824;DHT22;64457;51.976;9.834;2023-12-22T06:12:08;7.00;98.60
75824;DHT22;64457;51.976;9.834;2023-12-22T06:14:37;6.90;99.00
75824;DHT22;64457;51.976;9.834;2023-12-22T06:17:04;6.90;99.90
75824;DHT22;64457;51.976;9.834;2023-12-22T06:19:31;6.70;99.90
75824;DHT22;64457;51.976;9.834;2023-12-22T06:21:59;6.40;99.90
75824;DHT22;64457;51.976;9.834;2023-12-22T06:24:28;6.30;99.90
75824;DHT22;64457;51.976;9.834;2023-12-22T06:26:55;6.30;99.90
75824;DHT22;64457;51.976;9.834;2023-12-22T06:29:23;6.20;99.90
75824;DHT22;64457;51.976;9.834;2023-12-22T06:31:50;6.30;99.90
75824;DHT22;64457;51.976;9.834;2023-12-22T06:34:17;6.50;99.90
75824;DHT22;64457;51.976;9.834;2023-12-22T06:36:45;6.60;99.90
75824;DHT22;64457;51.976;9.834;2023-12-22T06:39:12;6.40;99.90
75824;DHT22;64457;51.976;9.834;2023-12-22T06:41:41;6.40;99.90
75824;DHT22;64457;51.976;9.834;2023-12-22T06:44:08;6.50;99.90
75824;DHT22;64457;51.976;9.834;2023-12-22T06:46:36;6.40;99.90
75824;DHT22;64457;51.976;9.834;2023-12-22T06:49:04;6.40;99.90
75824;DHT22;64457;51.976;9.834;2023-12-22T06:51:32;6.40;99.90
75824;DHT22;64457;51.976;9.834;2023-12-22T06:54:01;6.40;99.90
75824;DHT22;64457;51.976;9.834;2023-12-22T06:56:31;6.50;99.90
75824;DHT22;64457;51.976;9.834;2023-12-22T06:59:01;6.50;99.90
75824;DHT22;64457;51.976;9.834;2023-12-22T07:01:31;6.20;99.90
75824;DHT22;64457;51.976;9.834;2023-12-22T07:04:02;6.30;99.90
75824;DHT22;64457;51.976;9.834;2023-12-22T07:06:31;6.30;99.90
75824;DHT22;64457;51.976;9.834;2023-12-22T07:09:31;6.20;99.90
75824;DHT22;64457;51.976;9.834;2023-12-22T07:11:59;6.10;99.90
75824;DHT22;64457;51.976;9.834;2023-12-22T07:14:28;6.00;99.90
75824;DHT22;64457;51.976;9.834;2023-12-22T07:16:55;6.20;99.90
75824;DHT22;64457;51.976;9.834;2023-12-22T07:19:26;6.30;99.90
75824;DHT22;64457;51.976;9.834;2023-12-22T07:21:53;6.30;99.90
75824;DHT22;64457;51.976;9.834;2023-12-22T07:24:21;6.50;99.90
75824;DHT22;64457;51.976;9.834;2023-12-22T07:26:48;6.70;99.90
75824;DHT22;64457;51.976;9.834;2023-12-22T07:29:16;6.70;99.90
75824;DHT22;64457;51.976;9.834;2023-12-22T07:31:45;6.80;99.90
75824;DHT22;64457;51.976;9.834;2023-12-22T07:34:12;6.80;99.90
75824;DHT22;64457;51.976;9.834;2023-12-22T07:36:40;6.90;99.90
75824;DHT22;64457;51.976;9.834;2023-12-22T07:39:08;6.80;99.90
75824;DHT22;64457;51.976;9.834;2023-12-22T07:41:36;6.90;99.90
75824;DHT22;64457;51.976;9.834;2023-12-22T07:44:04;6.80;99.90
75824;DHT22;64457;51.976;9.834;2023-12-22T07:46:31;6.60;99.90
75824;DHT22;64457;51.976;9.834;2023-12-22T07:49:01;6.90;99.90
75824;DHT22;64457;51.976;9.834;2023-12-22T07:51:28;7.20;99.90
75824;DHT22;64457;51.976;9.834;2023-12-22T07:53:55;7.30;99.90
75824;DHT22;64457;51.976;9.834;2023-12-22T07:56:23;7.30;99.80
75824;DHT22;64457;51.976;9.834;2023-12-22T07:58:50;7.10;99.90
75824;DHT22;64457;51.976;9.834;2023-12-22T08:01:17;7.20;99.90
75824;DHT22;64457;51.976;9.834;2023-12-22T08:03:45;7.10;99.50
75824;DHT22;64457;51.976;9.834;2023-12-22T08:06:14;7.30;99.60
75824;DHT22;64457;51.976;9.834;2023-12-22T08:08:41;7.20;99.00
75824;DHT22;64457;51.976;9.834;2023-12-22T08:11:09;7.10;98.60
75824;DHT22;64457;51.976;9.834;2023-12-22T08:13:37;7.00;99.50
75824;DHT22;64457;51.976;9.834;2023-12-22T08:16:05;7.20;99.30
75824;DHT22;64457;51.976;9.834;2023-12-22T08:18:32;7.30;98.50
75824;DHT22;64457;51.976;9.834;2023-12-22T08:21:00;7.30;98.30
75824;DHT22;64457;51.976;9.834;2023-12-22T08:23:29;7.20;98.50
75824;DHT22;64457;51.976;9.834;2023-12-22T08:25:56;7.20;98.70
75824;DHT22;64457;51.976;9.834;2023-12-22T08:28:24;7.40;98.50
75824;DHT22;64457;51.976;9.834;2023-12-22T08:30:52;7.50;98.10
75824;DHT22;64457;51.976;9.834;2023-12-22T08:33:19;7.70;97.90
75824;DHT22;64457;51.976;9.834;2023-12-22T08:35:46;7.60;97.70
75824;DHT22;64457;51.976;9.834;2023-12-22T08:38:13;7.80;97.90
75824;DHT22;64457;51.976;9.834;2023-12-22T08:40:42;7.90;97.70
75824;DHT22;64457;51.976;9.834;2023-12-22T08:43:09;8.00;97.70
75824;DHT22;64457;51.976;9.834;2023-12-22T08:45:37;8.10;97.10
75824;DHT22;64457;51.976;9.834;2023-12-22T08:48:06;8.10;97.40
75824;DHT22;64457;51.976;9.834;2023-12-22T08:50:34;8.40;97.10
75824;DHT22;64457;51.976;9.834;2023-12-22T08:53:02;8.40;96.70
75824;DHT22;64457;51.976;9.834;2023-12-22T08:55:30;8.30;96.80
75824;DHT22;64457;51.976;9.834;2023-12-22T08:57:59;8.30;96.80
75824;DHT22;64457;51.976;9.834;2023-12-22T09:00:26;8.40;96.70
75824;DHT22;64457;51.976;9.834;2023-12-22T09:02:54;8.60;96.30
75824;DHT22;64457;51.976;9.834;2023-12-22T09:05:22;8.60;96.10
75824;DHT22;64457;51.976;9.834;2023-12-22T09:07:49;8.50;96.10
75824;DHT22;64457;51.976;9.834;2023-12-22T09:10:17;8.50;96.20
75824;DHT22;64457;51.976;9.834;2023-12-22T09:12:45;8.50;96.20
75824;DHT22;64457;51.976;9.834;2023-12-22T09:15:13;8.80;96.00
75824;DHT22;64457;51.976;9.834;2023-12-22T09:17:41;8.90;95.60
75824;DHT22;64457;51.976;9.834;2023-12-22T09:20:09;8.90;95.50
75824;DHT22;64457;51.976;9.834;2023-12-22T09:22:37;8.90;95.70
75824;DHT22;64457;51.976;9.834;2023-12-22T09:25:05;8.90;95.70
75824;DHT22;64457;51.976;9.834;2023-12-22T09:27:37;8.90;95.80
75824;DHT22;64457;51.976;9.834;2023-12-22T09:30:06;8.80;96.00
75824;DHT22;64457;51.976;9.834;2023-12-22T09:32:36;8.80;95.90
75824;DHT22;64457;51.976;9.834;2023-12-22T09:35:04;9.00;96.00
75824;DHT22;64457;51.976;9.834;2023-12-22T09:37:32;9.20;95.70
75824;DHT22;64457;51.976;9.834;2023-12-22T09:39:59;9.30;95.60
75824;DHT22;64457;51.976;9.834;2023-12-22T09:42:27;9.10;95.40
75824;DHT22;64457;51.976;9.834;2023-12-22T09:44:55;8.90;95.60
75824;DHT22;64457;51.976;9.834;2023-12-22T09:47:24;8.60;96.10
75824;DHT22;64457;51.976;9.834;2023-12-22T09:49:57;8.90;96.10
75824;DHT22;64457;51.976;9.834;2023-12-22T09:52:26;9.00;95.80
75824;DHT22;64457;51.976;9.834;2023-12-22T09:54:54;9.30;96.00
75824;DHT22;64457;51.976;9.834;2023-12-22T09:57:24;9.40;95.80
75824;DHT22;64457;51.976;9.834;2023-12-22T09:59:53;9.60;95.80
75824;DHT22;64457;51.976;9.834;2023-12-22T10:02:22;9.60;95.60
75824;DHT22;64457;51.976;9.834;2023-12-22T10:04:50;9.50;96.20
75824;DHT22;64457;51.976;9.834;2023-12-22T10:07:20;9.40;96.30
75824;DHT22;64457;51.976;9.834;2023-12-22T10:09:49;9.20;96.40
75824;DHT22;64457;51.976;9.834;2023-12-22T10:12:17;9.30;96.50
75824;DHT22;64457;51.976;9.834;2023-12-22T10:14:47;9.20;96.70
75824;DHT22;64457;51.976;9.834;2023-12-22T10:17:15;9.10;96.80
75824;DHT22;64457;51.976;9.834;2023-12-22T10:19:42;9.40;96.70
75824;DHT22;64457;51.976;9.834;2023-12-22T10:22:10;9.30;96.90
75824;DHT22;64457;51.976;9.834;2023-12-22T10:24:40;9.60;96.80
75824;DHT22;64457;51.976;9.834;2023-12-22T10:27:10;9.60;97.30
75824;DHT22;64457;51.976;9.834;2023-12-22T10:29:38;9.40;97.70
75824;DHT22;64457;51.976;9.834;2023-12-22T10:32:07;9.40;97.30
75824;DHT22;64457;51.976;9.834;2023-12-22T10:34:37;9.40;97.70
75824;DHT22;64457;51.976;9.834;2023-12-22T10:37:04;9.60;97.50
75824;DHT22;64457;51.976;9.834;2023-12-22T10:39:33;9.70;97.40
75824;DHT22;64457;51.976;9.834;2023-12-22T10:42:05;9.70;97.10
75824;DHT22;64457;51.976;9.834;2023-12-22T10:44:33;9.70;97.30
75824;DHT22;64457;51.976;9.834;2023-12-22T10:47:01;9.70;97.20
75824;DHT22;64457;51.976;9.834;2023-12-22T10:49:30;9.70;96.60
75824;DHT22;64457;51.976;9.834;2023-12-22T10:51:59;9.40;96.50
75824;DHT22;64457;51.976;9.834;2023-12-22T10:54:27;9.20;97.50
75824;DHT22;64457;51.976;9.834;2023-12-22T10:56:57;9.20;97.20
75824;DHT22;64457;51.976;9.834;2023-12-22T10:59:29;9.00;97.10
75824;DHT22;64457;51.976;9.834;2023-12-22T11:01:57;8.70;97.70
75824;DHT22;64457;51.976;9.834;2023-12-22T11:04:29;8.70;98.10
75824;DHT22;64457;51.976;9.834;2023-12-22T11:06:59;8.90;98.20
75824;DHT22;64457;51.976;9.834;2023-12-22T11:09:32;9.10;97.40
75824;DHT22;64457;51.976;9.834;2023-12-22T11:12:03;9.30;97.30
75824;DHT22;64457;51.976;9.834;2023-12-22T11:14:34;9.30;97.50
75824;DHT22;64457;51.976;9.834;2023-12-22T11:17:03;9.40;97.40
75824;DHT22;64457;51.976;9.834;2023-12-22T11:19:34;9.20;97.70
75824;DHT22;64457;51.976;9.834;2023-12-22T11:22:04;9.20;98.40
75824;DHT22;64457;51.976;9.834;2023-12-22T11:24:34;9.10;98.00
75824;DHT22;64457;51.976;9.834;2023-12-22T11:27:03;9.20;98.00
75824;DHT22;64457;51.976;9.834;2023-12-22T11:29:33;9.40;98.10
75824;DHT22;64457;51.976;9.834;2023-12-22T11:32:04;9.60;97.80
75824;DHT22;64457;51.976;9.834;2023-12-22T11:34:33;9.50;97.60
75824;DHT22;64457;51.976;9.834;2023-12-22T11:37:03;9.70;97.60
75824;DHT22;64457;51.976;9.834;2023-12-22T11:39:32;10.00;96.50
75824;DHT22;64457;51.976;9.834;2023-12-22T11:41:59;9.80;97.40
75824;DHT22;64457;51.976;9.834;2023-12-22T11:44:28;9.70;97.50
75824;DHT22;64457;51.976;9.834;2023-12-22T11:47:07;9.60;97.70
75824;DHT22;64457;51.976;9.834;2023-12-22T11:49:37;9.80;97.40
75824;DHT22;64457;51.976;9.834;2023-12-22T11:52:12;10.00;96.90
75824;DHT22;64457;51.976;9.834;2023-12-22T11:54:47;9.80;97.10
75824;DHT22;64457;51.976;9.834;2023-12-22T11:57:33;9.70;97.80
75824;DHT22;64457;51.976;9.834;2023-12-22T12:00:07;9.50;97.80
75824;DHT22;64457;51.976;9.834;2023-12-22T12:02:40;9.60;97.80
75824;DHT22;64457;51.976;9.834;2023-12-22T12:05:09;9.50;97.60
75824;DHT22;64457;51.976;9.834;2023-12-22T12:07:42;9.70;98.00
75824;DHT22;64457;51.976;9.834;2023-12-22T12:10:11;9.80;97.40
75824;DHT22;64457;51.976;9.834;2023-12-22T12:12:40;9.40;98.10
75824;DHT22;64457;51.976;9.834;2023-12-22T12:15:12;9.40;98.60
75824;DHT22;64457;51.976;9.834;2023-12-22T12:17:44;9.50;98.20
75824;DHT22;64457;51.976;9.834;2023-12-22T12:20:12;9.50;97.90
75824;DHT22;64457;51.976;9.834;2023-12-22T12:22:43;9.40;98.10
75824;DHT22;64457;51.976;9.834;2023-12-22T12:25:10;9.50;98.30
75824;DHT22;64457;51.976;9.834;2023-12-22T12:27:39;9.80;97.90
75824;DHT22;64457;51.976;9.834;2023-12-22T12:30:12;9.80;97.70
75824;DHT22;64457;51.976;9.834;2023-12-22T12:32:43;10.00;97.00
75824;DHT22;64457;51.976;9.834;2023-12-22T12:35:12;10.10;96.70
75824;DHT22;64457;51.976;9.834;2023-12-22T12:37:40;9.80;97.50
75824;DHT22;64457;51.976;9.834;2023-12-22T12:40:11;10.00;97.50
75824;DHT22;64457;51.976;9.834;2023-12-22T12:42:39;10.20;96.90
75824;DHT22;64457;51.976;9.834;2023-12-22T12:45:07;10.20;96.60
75824;DHT22;64457;51.976;9.834;2023-12-22T12:47:35;10.20;96.80
75824;DHT22;64457;51.976;9.834;2023-12-22T12:50:05;10.30;97.00
75824;DHT22;64457;51.976;9.834;2023-12-22T12:52:34;10.20;96.50
75824;DHT22;64457;51.976;9.834;2023-12-22T12:55:03;10.30;96.60
75824;DHT22;64457;51.976;9.834;2023-12-22T12:57:32;10.60;96.40
75824;DHT22;64457;51.976;9.834;2023-12-22T13:00:02;10.70;96.00
75824;DHT22;64457;51.976;9.834;2023-12-22T13:02:35;10.60;96.10
75824;DHT22;64457;51.976;9.834;2023-12-22T13:05:05;10.60;96.20
75824;DHT22;64457;51.976;9.834;2023-12-22T13:07:35;10.70;96.20
75824;DHT22;64457;51.976;9.834;2023-12-22T13:10:19;10.70;96.00
75824;DHT22;64457;51.976;9.834;2023-12-22T13:12:51;10.70;95.90
75824;DHT22;64457;51.976;9.834;2023-12-22T13:15:20;10.60;95.90
75824;DHT22;64457;51.976;9.834;2023-12-22T13:17:50;10.60;96.00
75824;DHT22;64457;51.976;9.834;2023-12-22T13:20:18;10.60;96.00
75824;DHT22;64457;51.976;9.834;2023-12-22T13:22:46;10.50;96.10
75824;DHT22;64457;51.976;9.834;2023-12-22T13:25:14;10.30;96.20
75824;DHT22;64457;51.976;9.834;2023-12-22T13:27:45;10.30;96.30
75824;DHT22;64457;51.976;9.834;2023-12-22T13:30:13;10.30;96.40
75824;DHT22;64457;51.976;9.834;2023-12-22T13:32:41;10.30;96.50
75824;DHT22;64457;51.976;9.834;2023-12-22T13:35:08;10.30;96.50
75824;DHT22;64457;51.976;9.834;2023-12-22T13:37:42;10.40;96.30
75824;DHT22;64457;51.976;9.834;2023-12-22T13:40:11;10.10;96.30
75824;DHT22;64457;51.976;9.834;2023-12-22T13:42:39;9.90;97.20
75824;DHT22;64457;51.976;9.834;2023-12-22T13:45:10;10.00;96.90
75824;DHT22;64457;51.976;9.834;2023-12-22T13:47:40;9.80;97.60
75824;DHT22;64457;51.976;9.834;2023-12-22T13:50:14;9.90;97.50
75824;DHT22;64457;51.976;9.834;2023-12-22T13:52:43;9.90;97.70
75824;DHT22;64457;51.976;9.834;2023-12-22T13:55:12;10.00;97.10
75824;DHT22;64457;51.976;9.834;2023-12-22T13:57:40;10.10;96.90
75824;DHT22;64457;51.976;9.834;2023-12-22T14:00:26;10.20;96.90
75824;DHT22;64457;51.976;9.834;2023-12-22T14:02:55;10.20;96.60
75824;DHT22;64457;51.976;9.834;2023-12-22T14:05:22;10.10;96.60
75824;DHT22;64457;51.976;9.834;2023-12-22T14:07:52;10.20;96.70
75824;DHT22;64457;51.976;9.834;2023-12-22T14:10:19;10.10;96.60
75824;DHT22;64457;51.976;9.834;2023-12-22T14:12:47;9.90;97.50
75824;DHT22;64457;51.976;9.834;2023-12-22T14:15:14;9.80;97.70
75824;DHT22;64457;51.976;9.834;2023-12-22T14:17:41;9.70;97.80
75824;DHT22;64457;51.976;9.834;2023-12-22T14:20:09;9.80;97.90
75824;DHT22;64457;51.976;9.834;2023-12-22T14:22:37;9.90;97.90
75824;DHT22;64457;51.976;9.834;2023-12-22T14:25:07;9.90;97.90
75824;DHT22;64457;51.976;9.834;2023-12-22T14:27:35;10.10;97.10
75824;DHT22;64457;51.976;9.834;2023-12-22T14:30:03;10.10;97.30
75824;DHT22;64457;51.976;9.834;2023-12-22T14:32:31;10.30;96.70
75824;DHT22;64457;51.976;9.834;2023-12-22T14:34:58;10.10;96.40
75824;DHT22;64457;51.976;9.834;2023-12-22T14:37:26;10.10;96.80
75824;DHT22;64457;51.976;9.834;2023-12-22T14:39:54;10.00;96.60
75824;DHT22;64457;51.976;9.834;2023-12-22T14:42:22;10.00;96.90
75824;DHT22;64457;51.976;9.834;2023-12-22T14:44:50;9.80;97.50
75824;DHT22;64457;51.976;9.834;2023-12-22T14:47:19;9.80;97.70
75824;DHT22;64457;51.976;9.834;2023-12-22T14:49:47;9.90;97.70
75824;DHT22;64457;51.976;9.834;2023-12-22T14:52:15;9.60;97.60
75824;DHT22;64457;51.976;9.834;2023-12-22T14:54:42;9.10;97.10
75824;DHT22;64457;51.976;9.834;2023-12-22T14:57:10;9.00;98.10
75824;DHT22;64457;51.976;9.834;2023-12-22T14:59:39;9.20;97.60
75824;DHT22;64457;51.976;9.834;2023-12-22T15:02:07;9.30;97.40
75824;DHT22;64457;51.976;9.834;2023-12-22T15:04:34;9.20;97.40
75824;DHT22;64457;51.976;9.834;2023-12-22T15:07:02;9.40;97.30
75824;DHT22;64457;51.976;9.834;2023-12-22T15:09:29;9.70;97.30
75824;DHT22;64457;51.976;9.834;2023-12-22T15:11:57;9.70;97.20
75824;DHT22;64457;51.976;9.834;2023-12-22T15:14:24;9.70;97.80
75824;DHT22;64457;51.976;9.834;2023-12-22T15:16:53;9.40;98.20
75824;DHT22;64457;51.976;9.834;2023-12-22T15:19:20;9.30;98.60
75824;DHT22;64457;51.976;9.834;2023-12-22T15:21:48;9.10;99.50
75824;DHT22;64457;51.976;9.834;2023-12-22T15:24:15;9.10;99.60
75824;DHT22;64457;51.976;9.834;2023-12-22T15:26:43;9.20;99.70
75824;DHT22;64457;51.976;9.834;2023-12-22T15:29:10;9.00;99.70
75824;DHT22;64457;51.976;9.834;2023-12-22T15:31:47;9.10;99.90
75824;DHT22;64457;51.976;9.834;2023-12-22T15:34:16;9.00;99.90
75824;DHT22;64457;51.976;9.834;2023-12-22T15:36:44;8.90;99.90
75824;DHT22;64457;51.976;9.834;2023-12-22T15:39:15;9.10;99.90
75824;DHT22;64457;51.976;9.834;2023-12-22T15:41:45;9.20;99.90
75824;DHT22;64457;51.976;9.834;2023-12-22T15:44:13;9.00;99.90
75824;DHT22;64457;51.976;9.834;2023-12-22T15:46:41;8.90;99.90
75824;DHT22;64457;51.976;9.834;2023-12-22T15:49:09;8.90;99.90
75824;DHT22;64457;51.976;9.834;2023-12-22T15:51:41;8.90;99.90
75824;DHT22;64457;51.976;9.834;2023-12-22T15:54:11;8.90;99.90